Anchorage/Elmendorf AFB, Alaska
Current Conditions -  °F | °C
As of 9:58 PM on Sunday 21 Dec 2014 (Local Time) from PAED Reporting Station
Overcast Overcast  
Wind Chill: 23°   Ceiling: 6500
Heat Index: 23°   Visibility: 10mi
Dew Point: 21°   Wind: 2mph
Humidity: 91%   Direction: 90°E
Pressure: 29.49"   Gusts: NA
Location:  61.25°N, 149.79°W
Report Text: PAED 220658Z AUTO 09002KT 10SM BKN065 OVC150 M05/M06 A2949 RMK AO2 SLP984 T10481061
Loading
Personal Weather Stations






























Interactive Weather Map New forecast layout! Learn more

10-Day Weather Forecast

Advertisements
Track Severe Weather on mobile